Almo, KY

3:48 PM CDT on March 27, 2017 (GMT -0500)
Kyle-Oakley | | Change Station

Elev 577 ft 36.66 °N, 88.37 °W | Updated 13 minutes ago

Rain
Rain
57 °F
Feels Like 57 °F
N
4
Wind Variable Wind from SSE

Today
High -- | Low -- °F
--% Chance of Precip.
Yesterday
High -- | Low -- °F
Precip. -- in
Pressure 29.85 in
Visibility 3.0 miles
Clouds Scattered Clouds 4100 ft
Mostly Cloudy 6500 ft
Dew Point 57 °F
Humidity 100%
Rainfall 0.65 in
Snow Depth Not available.
6:45 AM 7:11 PM
Waning Crescent, 0% visible
METAR KCEY 272035Z AUTO 16003KT 3SM SCT041 BKN065 14/14 A2985 RMK AO1 P0004
Pressure 29.85 in
Visibility 3.0 miles
Clouds Scattered Clouds 4100 ft
Mostly Cloudy 6500 ft
Dew Point 57 °F
Humidity 100%
Rainfall 0.65 in
Snow Depth Not available.
6:45 AM 7:11 PM
Waning Crescent, 0% visible
METAR KCEY 272035Z AUTO 16003KT 3SM SCT041 BKN065 14/14 A2985 RMK AO1 P0004

Get Your Daily Forecast Email!

Thanks for signing up!

Be on the lookout for a verification email in your inbox.

You'll start receiving severe weather alerts in your inbox..

×

10-Day Weather Forecast

Almanac

Astronomy

Mar. 27, 2017 Rise Set
Actual Time
Civil Twilight
Nautical Twilight
Astronomical Twilight
Moon
Length of Visible Light
Length of Day
Tomorrow will be .
, % of the Moon is Illuminated

Today's Extremes

State Highs State Lows

Community

WunderPhotos

Upload Photos

1,962,540 photos uploaded!

WunderBlog® & News

Nearby

Air Quality

  Air Quality AQ Index Pollutant
Not available.

Snow Depth

Station Depth Elevation

Earthquake Activity

City Distance Mag. Time & Date
Minimum magnitude displayed is 2.5.

Earthquake Activity

City Distance Mag. Time & Date
Minimum magnitude displayed is 2.5.

Coastal Water Temperatures

Place Temperature

Stations

Nearby Weather Stations

Station Location Temp. Windchill Dew Point Humidity Wind Precip. Elev Updated Type
                   

Watches & Warnings

Severe Thunderstorm Watch
Issued: 3:43 PM CDT Mar. 27, 2017 – National Weather Service

Severe Thunderstorm Watch 89 remains in effect until 800 PM CDT

KY
. Kentucky counties included are

Ballard Caldwell Calloway
Carlisle Christian Crittenden
Fulton Graves Hickman
Hopkins Livingston Lyon
McCracken McLean Marshall
Muhlenberg Todd Trigg
Webster